createdAt,value
2023-03-06T00:00:12.311Z,7.38
2023-03-06T00:00:48.639Z,8.68
2023-03-06T00:01:23.549Z,7.95
2023-03-06T00:01:58.512Z,8.27
2023-03-06T00:02:30.628Z,10.18
2023-03-06T00:03:05.496Z,8.15
2023-03-06T00:03:37.634Z,8.40
2023-03-06T00:04:09.881Z,6.82
2023-03-06T00:04:42.031Z,8.25
2023-03-06T00:05:17.833Z,8.60
2023-03-06T00:05:50.305Z,8.05
2023-03-06T00:06:22.407Z,8.43
2023-03-06T00:06:57.258Z,7.22
2023-03-06T00:07:29.342Z,8.32
2023-03-06T00:08:01.841Z,6.43
2023-03-06T00:08:36.520Z,8.15
2023-03-06T00:09:09.882Z,7.70
2023-03-06T00:09:42.111Z,8.18
2023-03-06T00:10:23.616Z,7.70
2023-03-06T00:10:56.733Z,7.70
2023-03-06T00:11:28.809Z,9.32
2023-03-06T00:12:03.621Z,8.65
2023-03-06T00:12:36.052Z,10.10
2023-03-06T00:13:11.750Z,8.95
2023-03-06T00:13:47.077Z,8.45
2023-03-06T00:14:19.544Z,8.43
2023-03-06T00:14:51.745Z,9.55
2023-03-06T00:15:28.083Z,8.45
2023-03-06T00:16:01.175Z,7.80
2023-03-06T00:16:33.741Z,9.50
2023-03-06T00:17:11.154Z,8.23
2023-03-06T00:17:43.268Z,8.32
2023-03-06T00:18:15.814Z,9.85
2023-03-06T00:18:50.486Z,8.80
2023-03-06T00:19:22.702Z,7.82
2023-03-06T00:19:55.036Z,8.77
2023-03-06T00:20:29.863Z,10.15
2023-03-06T00:21:02.096Z,9.32
2023-03-06T00:21:34.197Z,8.52
2023-03-06T00:22:09.215Z,8.43
2023-03-06T00:22:43.078Z,8.48
2023-03-06T00:23:15.288Z,7.47
2023-03-06T00:23:50.138Z,9.73
2023-03-06T00:24:23.053Z,8.45
2023-03-06T00:24:55.213Z,8.43
2023-03-06T00:25:30.347Z,8.25
2023-03-06T00:26:02.588Z,7.47
2023-03-06T00:26:36.033Z,8.65
2023-03-06T00:27:10.962Z,7.88
2023-03-06T00:27:43.956Z,8.52
2023-03-06T00:28:17.392Z,8.45
2023-03-06T00:28:52.044Z,8.45
2023-03-06T00:29:24.788Z,8.88
2023-03-06T00:29:59.085Z,8.13
2023-03-06T00:30:34.116Z,7.82
2023-03-06T00:31:07.927Z,8.65
2023-03-06T00:31:40.824Z,8.80
2023-03-06T00:32:18.203Z,8.73
2023-03-06T00:32:53.333Z,7.65
2023-03-06T00:33:25.794Z,8.20
2023-03-06T00:34:02.201Z,7.97
2023-03-06T00:34:34.324Z,8.80
2023-03-06T00:35:07.477Z,8.82
2023-03-06T00:35:42.500Z,10.43
2023-03-06T00:36:15.868Z,8.45
2023-03-06T00:36:48.036Z,8.30
2023-03-06T00:37:23.333Z,8.15
2023-03-06T00:37:55.631Z,7.50
2023-03-06T00:38:31.620Z,9.18
2023-03-06T00:39:06.478Z,8.48
2023-03-06T00:39:38.620Z,7.78
2023-03-06T00:40:14.022Z,7.10
2023-03-06T00:40:48.805Z,6.95
2023-03-06T00:41:22.165Z,7.50
2023-03-06T00:41:55.738Z,7.78
2023-03-06T00:42:30.317Z,8.10
2023-03-06T00:43:05.074Z,7.97
2023-03-06T00:43:37.611Z,8.13
2023-03-06T00:44:10.100Z,7.40
2023-03-06T00:44:45.113Z,7.85
2023-03-06T00:45:17.365Z,7.88
2023-03-06T00:45:50.395Z,7.10
2023-03-06T00:46:25.545Z,6.40
2023-03-06T00:46:57.888Z,6.53
2023-03-06T00:47:32.716Z,6.75
2023-03-06T00:48:06.063Z,6.65
2023-03-06T00:48:41.432Z,8.60
2023-03-06T00:49:13.623Z,6.10
2023-03-06T00:49:45.790Z,7.05
2023-03-06T00:50:20.626Z,5.15
2023-03-06T00:50:52.710Z,6.82
2023-03-06T00:51:24.904Z,4.93
2023-03-06T00:52:00.010Z,4.93
2023-03-06T00:52:32.237Z,5.65
2023-03-06T00:53:04.347Z,4.45
2023-03-06T00:53:39.140Z,7.68
2023-03-06T00:54:11.338Z,5.05
2023-03-06T00:54:44.070Z,5.95
2023-03-06T00:55:19.077Z,6.20
2023-03-06T00:55:52.037Z,5.57
2023-03-06T00:56:24.930Z,5.82
2023-03-06T00:56:59.893Z,5.20
2023-03-06T00:57:32.139Z,6.13
2023-03-06T00:58:04.372Z,6.13
2023-03-06T00:58:39.466Z,6.15
2023-03-06T00:59:12.091Z,6.00
2023-03-06T00:59:44.183Z,4.55
2023-03-06T01:00:17.334Z,4.07
2023-03-06T01:00:52.049Z,5.88
2023-03-06T01:01:24.235Z,5.25
2023-03-06T01:01:56.849Z,4.75
2023-03-06T01:02:29.076Z,4.88
2023-03-06T01:03:07.320Z,4.88
2023-03-06T01:03:39.431Z,4.55
2023-03-06T01:04:12.134Z,5.20
2023-03-06T01:04:46.920Z,4.72
2023-03-06T01:05:19.219Z,4.40
2023-03-06T01:05:51.402Z,4.15
2023-03-06T01:06:26.259Z,4.00
2023-03-06T01:06:58.352Z,4.00
2023-03-06T01:07:34.506Z,4.40
2023-03-06T01:08:09.441Z,4.68
2023-03-06T01:08:42.344Z,6.70
2023-03-06T01:09:14.449Z,5.38
2023-03-06T01:09:49.106Z,4.20
2023-03-06T01:10:21.643Z,3.95
2023-03-06T01:10:54.036Z,4.28
2023-03-06T01:11:29.063Z,3.80
2023-03-06T01:12:01.275Z,5.03
2023-03-06T01:12:33.578Z,4.47
2023-03-06T01:13:05.746Z,4.32
2023-03-06T01:13:40.528Z,4.70
2023-03-06T01:14:13.027Z,4.07
2023-03-06T01:14:45.774Z,5.07
2023-03-06T01:15:20.617Z,4.03
2023-03-06T01:15:53.023Z,4.68
2023-03-06T01:16:26.958Z,4.03
2023-03-06T01:17:02.866Z,4.38
2023-03-06T01:17:35.361Z,4.43
2023-03-06T01:18:10.664Z,4.03
2023-03-06T01:18:45.945Z,4.80
2023-03-06T01:19:18.355Z,5.60
2023-03-06T01:19:50.769Z,4.82
2023-03-06T01:20:25.696Z,4.43
2023-03-06T01:20:58.249Z,4.47
2023-03-06T01:21:30.865Z,3.90
2023-03-06T01:22:06.723Z,4.63
2023-03-06T01:22:38.949Z,5.45
2023-03-06T01:23:11.093Z,5.60
2023-03-06T01:23:46.598Z,4.63
2023-03-06T01:24:18.779Z,5.40
2023-03-06T01:24:50.950Z,4.72
2023-03-06T01:25:24.310Z,4.40
2023-03-06T01:25:59.260Z,3.95
2023-03-06T01:26:31.878Z,4.88
2023-03-06T01:27:04.239Z,4.75
2023-03-06T01:27:39.116Z,5.00
2023-03-06T01:28:11.549Z,3.92
2023-03-06T01:28:43.781Z,4.82
2023-03-06T01:29:18.519Z,4.40
2023-03-06T01:29:50.938Z,4.82
2023-03-06T01:30:23.122Z,4.63
2023-03-06T01:30:58.585Z,4.78
2023-03-06T01:31:31.559Z,4.82
2023-03-06T01:32:04.042Z,4.13
2023-03-06T01:32:38.852Z,4.53
2023-03-06T01:33:13.712Z,5.65
2023-03-06T01:33:46.146Z,3.90
2023-03-06T01:34:22.297Z,4.00
2023-03-06T01:34:54.587Z,3.80
2023-03-06T01:35:26.811Z,3.75
2023-03-06T01:35:59.127Z,4.55
2023-03-06T01:36:34.018Z,4.70
2023-03-06T01:37:08.110Z,4.55
2023-03-06T01:37:40.841Z,3.78
2023-03-06T01:38:13.054Z,4.72
2023-03-06T01:38:48.345Z,3.78
2023-03-06T01:39:20.584Z,4.47
2023-03-06T01:39:53.033Z,4.68
2023-03-06T01:40:28.476Z,4.28
2023-03-06T01:41:01.474Z,4.55
2023-03-06T01:41:33.928Z,4.10
2023-03-06T01:42:09.396Z,4.35
2023-03-06T01:42:42.862Z,4.55
2023-03-06T01:43:27.202Z,6.57
2023-03-06T01:44:02.157Z,3.95
2023-03-06T01:44:34.466Z,4.85
2023-03-06T01:45:24.923Z,4.20
2023-03-06T01:46:33.531Z,4.78
2023-03-06T01:47:06.224Z,5.07
2023-03-06T01:47:38.465Z,4.82
2023-03-06T01:48:10.627Z,4.20
2023-03-06T01:48:49.181Z,5.18
2023-03-06T01:49:24.404Z,4.05
2023-03-06T01:49:58.036Z,4.05
2023-03-06T01:50:32.850Z,5.97
2023-03-06T01:51:05.566Z,4.65
2023-03-06T01:51:40.788Z,4.40
2023-03-06T01:52:19.397Z,4.75
2023-03-06T01:52:56.601Z,4.57
2023-03-06T01:53:29.066Z,4.72
2023-03-06T01:54:07.693Z,3.95
2023-03-06T01:54:45.684Z,4.47
2023-03-06T01:55:24.852Z,4.90
2023-03-06T01:55:57.003Z,4.22
2023-03-06T01:56:29.839Z,4.28
2023-03-06T01:57:08.520Z,4.03
2023-03-06T01:57:44.286Z,4.72
2023-03-06T01:58:18.851Z,4.05
2023-03-06T01:58:54.524Z,3.95
2023-03-06T01:59:29.455Z,4.53
2023-03-06T02:00:05.304Z,4.78
2023-03-06T02:00:48.170Z,4.93
2023-03-06T02:01:21.518Z,5.43
2023-03-06T02:01:54.553Z,4.25
2023-03-06T02:02:29.890Z,5.70
2023-03-06T02:03:07.363Z,4.57
2023-03-06T02:03:47.379Z,4.47
2023-03-06T02:04:22.883Z,4.10
2023-03-06T02:04:56.356Z,4.57
2023-03-06T02:05:29.905Z,5.38
2023-03-06T02:06:02.166Z,4.35
2023-03-06T02:06:43.267Z,5.75
2023-03-06T02:07:19.653Z,4.82
2023-03-06T02:07:53.793Z,4.35
2023-03-06T02:08:27.288Z,4.30
2023-03-06T02:09:02.147Z,4.72
2023-03-06T02:09:35.643Z,5.40
2023-03-06T02:10:09.218Z,4.05
2023-03-06T02:10:46.105Z,5.30
2023-03-06T02:11:20.293Z,4.22
2023-03-06T02:11:56.019Z,4.13
2023-03-06T02:12:29.028Z,4.10
2023-03-06T02:13:01.502Z,4.18
2023-03-06T02:13:36.430Z,4.95
2023-03-06T02:14:08.630Z,4.10
2023-03-06T02:14:45.083Z,5.30
2023-03-06T02:15:20.563Z,5.05
2023-03-06T02:15:53.632Z,4.00
2023-03-06T02:16:31.387Z,3.55
2023-03-06T02:17:04.465Z,3.55
2023-03-06T02:17:37.718Z,5.07
2023-03-06T02:18:12.572Z,4.22
2023-03-06T02:18:47.554Z,5.78
2023-03-06T02:19:31.546Z,4.25
2023-03-06T02:20:13.181Z,4.10
2023-03-06T02:20:48.965Z,4.70
2023-03-06T02:21:24.591Z,4.53
2023-03-06T02:21:59.858Z,3.63
2023-03-06T02:22:37.849Z,4.65
2023-03-06T02:23:32.591Z,4.15
2023-03-06T02:24:26.127Z,5.65
2023-03-06T02:25:22.303Z,4.60
2023-03-06T02:25:54.866Z,5.22
2023-03-06T02:26:32.524Z,4.65
2023-03-06T02:27:05.991Z,4.70
2023-03-06T02:27:38.465Z,4.85
2023-03-06T02:28:19.425Z,5.85
2023-03-06T02:28:51.713Z,4.28
2023-03-06T02:29:28.952Z,4.43
2023-03-06T02:30:10.032Z,4.90
2023-03-06T02:30:45.147Z,5.00
2023-03-06T02:31:24.572Z,5.05
2023-03-06T02:31:59.646Z,3.80
2023-03-06T02:32:31.810Z,4.53
2023-03-06T02:33:04.691Z,5.47
2023-03-06T02:33:39.710Z,6.80
2023-03-06T02:34:50.907Z,5.22
2023-03-06T02:35:27.515Z,4.88
2023-03-06T02:36:01.376Z,5.53
2023-03-06T02:36:37.527Z,4.68
2023-03-06T02:37:13.679Z,4.65
2023-03-06T02:37:46.976Z,5.20
2023-03-06T02:38:24.033Z,5.32
2023-03-06T02:39:00.001Z,6.00
2023-03-06T02:39:34.228Z,5.38
2023-03-06T02:40:12.365Z,5.63
2023-03-06T02:40:52.495Z,5.63
2023-03-06T02:41:25.658Z,5.63
2023-03-06T02:41:58.256Z,5.93
2023-03-06T02:42:32.731Z,6.63
2023-03-06T02:43:09.287Z,5.78
2023-03-06T02:43:44.172Z,6.85
2023-03-06T02:44:16.401Z,5.95
2023-03-06T02:44:51.688Z,5.05
2023-03-06T02:45:30.584Z,5.25
2023-03-06T02:46:05.499Z,6.13
2023-03-06T02:46:37.811Z,7.05
2023-03-06T02:47:10.046Z,7.57
2023-03-06T02:47:44.794Z,6.25
2023-03-06T02:48:18.468Z,5.47
2023-03-06T02:48:51.349Z,7.13
2023-03-06T02:49:26.581Z,6.32
2023-03-06T02:49:58.918Z,5.70
2023-03-06T02:50:31.763Z,5.88
2023-03-06T02:51:06.551Z,6.22
2023-03-06T02:51:38.646Z,6.20
2023-03-06T02:52:11.354Z,6.05
2023-03-06T02:52:47.403Z,6.40
2023-03-06T02:53:20.918Z,5.70
2023-03-06T02:53:53.094Z,5.60
2023-03-06T02:54:29.314Z,5.82
2023-03-06T02:55:01.396Z,6.40
2023-03-06T02:55:34.073Z,6.00
2023-03-06T02:56:12.033Z,6.30
2023-03-06T02:56:44.274Z,6.53
2023-03-06T02:57:16.395Z,6.90
2023-03-06T02:57:51.265Z,5.65
2023-03-06T02:58:24.173Z,6.65
2023-03-06T02:58:56.258Z,7.20
2023-03-06T02:59:30.989Z,6.88
2023-03-06T03:00:05.472Z,6.63
2023-03-06T03:00:37.620Z,6.55
2023-03-06T03:01:14.296Z,6.30
2023-03-06T03:01:47.923Z,5.22
2023-03-06T03:02:20.417Z,6.10
2023-03-06T03:02:55.491Z,5.97
2023-03-06T03:03:27.573Z,7.45
2023-03-06T03:04:00.264Z,6.68
2023-03-06T03:04:35.779Z,6.18
2023-03-06T03:05:08.871Z,5.90
2023-03-06T03:05:41.024Z,7.97
2023-03-06T03:06:25.350Z,5.70
2023-03-06T03:06:59.007Z,6.00
2023-03-06T03:07:31.135Z,5.45
2023-03-06T03:08:06.202Z,6.07
2023-03-06T03:08:38.975Z,6.30
2023-03-06T03:09:11.337Z,6.50
2023-03-06T03:09:46.391Z,6.43
2023-03-06T03:10:19.555Z,5.57
2023-03-06T03:10:52.421Z,6.78
2023-03-06T03:11:28.364Z,6.20
2023-03-06T03:12:03.862Z,5.78
2023-03-06T03:12:36.182Z,6.57
2023-03-06T03:13:08.765Z,6.00
2023-03-06T03:13:43.840Z,7.75
2023-03-06T03:14:21.335Z,5.35
2023-03-06T03:14:53.892Z,6.47
2023-03-06T03:15:29.011Z,6.63
2023-03-06T03:16:03.064Z,7.43
2023-03-06T03:16:37.537Z,8.90
2023-03-06T03:17:13.742Z,8.73
2023-03-06T03:17:45.862Z,6.88
2023-03-06T03:18:18.308Z,6.45
2023-03-06T03:18:53.157Z,5.20
2023-03-06T03:19:27.484Z,7.45
2023-03-06T03:19:59.843Z,6.63
2023-03-06T03:20:34.888Z,6.60
2023-03-06T03:21:12.068Z,7.32
2023-03-06T03:21:44.581Z,6.32
2023-03-06T03:22:20.247Z,7.25
2023-03-06T03:22:55.107Z,6.40
2023-03-06T03:23:29.301Z,5.95
2023-03-06T03:24:05.721Z,5.65
2023-03-06T03:24:38.076Z,6.95
2023-03-06T03:25:10.569Z,7.13
2023-03-06T03:25:45.385Z,6.15
2023-03-06T03:26:20.301Z,6.03
2023-03-06T03:27:04.236Z,6.43
2023-03-06T03:27:37.374Z,7.25
2023-03-06T03:28:10.129Z,5.47
2023-03-06T03:28:44.910Z,6.00
2023-03-06T03:29:19.576Z,6.20
2023-03-06T03:29:52.920Z,6.90
2023-03-06T03:30:32.891Z,6.63
2023-03-06T03:31:07.310Z,6.43
2023-03-06T03:31:40.033Z,6.18
2023-03-06T03:32:14.748Z,6.30
2023-03-06T03:32:47.658Z,7.82
2023-03-06T03:33:19.776Z,6.00
2023-03-06T03:33:55.216Z,6.55
2023-03-06T03:34:28.349Z,6.80
2023-03-06T03:35:01.480Z,6.22
2023-03-06T03:35:36.774Z,7.65
2023-03-06T03:36:10.179Z,5.97
2023-03-06T03:36:46.805Z,5.82
2023-03-06T03:37:22.550Z,5.38
2023-03-06T03:37:55.378Z,5.35
2023-03-06T03:38:28.936Z,6.50
2023-03-06T03:39:01.379Z,5.47
2023-03-06T03:39:36.186Z,6.22
2023-03-06T03:40:11.006Z,6.32
2023-03-06T03:40:43.153Z,7.10
2023-03-06T03:41:20.408Z,5.60
2023-03-06T03:41:53.004Z,4.93
2023-03-06T03:42:28.176Z,5.57
2023-03-06T03:43:02.912Z,5.15
2023-03-06T03:43:35.080Z,5.70
2023-03-06T03:44:07.318Z,5.28
2023-03-06T03:44:42.146Z,6.25
2023-03-06T03:45:14.981Z,7.05
2023-03-06T03:45:47.118Z,4.85
2023-03-06T03:46:21.966Z,5.88
2023-03-06T03:46:55.901Z,5.93
2023-03-06T03:47:28.642Z,5.93
2023-03-06T03:48:03.406Z,6.25
2023-03-06T03:48:35.578Z,6.28
2023-03-06T03:49:07.841Z,5.57
2023-03-06T03:49:42.232Z,5.78
2023-03-06T03:50:16.992Z,5.53
2023-03-06T03:50:49.507Z,6.85
2023-03-06T03:51:22.250Z,6.32
2023-03-06T03:52:00.785Z,7.97
2023-03-06T03:52:35.763Z,6.30
2023-03-06T03:53:07.995Z,4.72
2023-03-06T03:53:43.793Z,5.82
2023-03-06T03:54:17.331Z,5.50
2023-03-06T03:54:54.896Z,5.60
2023-03-06T03:55:27.920Z,5.75
2023-03-06T03:56:00.091Z,5.60
2023-03-06T03:56:33.089Z,5.88
2023-03-06T03:57:13.989Z,5.22
2023-03-06T03:57:53.898Z,4.57
2023-03-06T03:58:26.273Z,5.90
2023-03-06T03:59:02.262Z,5.25
2023-03-06T03:59:40.034Z,5.82
2023-03-06T04:00:20.000Z,5.03
2023-03-06T04:01:11.718Z,5.43
2023-03-06T04:01:45.970Z,5.85
2023-03-06T04:02:21.771Z,4.55
2023-03-06T04:03:13.940Z,4.85
2023-03-06T04:03:49.047Z,6.80
2023-03-06T04:04:24.857Z,6.03
2023-03-06T04:04:57.709Z,5.97
2023-03-06T04:05:29.923Z,5.35
2023-03-06T04:06:05.663Z,6.15
2023-03-06T04:06:38.207Z,5.95
2023-03-06T04:07:10.834Z,5.63
2023-03-06T04:07:44.738Z,5.45
2023-03-06T04:08:19.482Z,5.80
2023-03-06T04:08:53.340Z,5.90
2023-03-06T04:09:25.493Z,7.47
2023-03-06T04:10:00.371Z,6.97
2023-03-06T04:10:34.464Z,6.90
2023-03-06T04:11:10.331Z,8.88
2023-03-06T04:11:42.428Z,5.45
2023-03-06T04:12:14.688Z,8.38
2023-03-06T04:12:48.089Z,6.15
2023-03-06T04:13:26.000Z,6.60
2023-03-06T04:13:58.773Z,5.45
2023-03-06T04:14:31.473Z,5.85
2023-03-06T04:15:07.631Z,6.65
2023-03-06T04:15:40.767Z,8.30
2023-03-06T04:16:13.852Z,6.57
2023-03-06T04:16:46.164Z,7.93
2023-03-06T04:17:21.116Z,5.63
2023-03-06T04:17:53.872Z,6.10
2023-03-06T04:18:29.630Z,7.47
2023-03-06T04:19:08.942Z,7.03
2023-03-06T04:19:41.392Z,6.88
2023-03-06T04:20:14.602Z,6.75
2023-03-06T04:20:50.291Z,6.78
2023-03-06T04:21:23.375Z,6.05
2023-03-06T04:21:55.469Z,6.63
2023-03-06T04:22:30.390Z,6.90
2023-03-06T04:23:02.906Z,7.43
2023-03-06T04:23:36.981Z,7.82
2023-03-06T04:24:11.964Z,6.47
2023-03-06T04:24:44.106Z,8.43
2023-03-06T04:25:16.415Z,6.68
2023-03-06T04:25:48.493Z,7.50
2023-03-06T04:26:24.841Z,6.65
2023-03-06T04:26:57.658Z,6.70
2023-03-06T04:27:30.191Z,6.18
2023-03-06T04:28:04.942Z,6.63
2023-03-06T04:28:39.814Z,7.20
2023-03-06T04:29:12.217Z,6.00
2023-03-06T04:29:48.059Z,6.82
2023-03-06T04:30:20.475Z,6.78
2023-03-06T04:30:53.329Z,7.15
2023-03-06T04:31:28.875Z,7.22
2023-03-06T04:32:01.240Z,6.43
2023-03-06T04:32:33.561Z,8.02
2023-03-06T04:33:09.442Z,8.98
2023-03-06T04:33:42.217Z,9.65
2023-03-06T04:34:14.589Z,9.68
2023-03-06T04:34:50.060Z,8.75
2023-03-06T04:35:22.551Z,8.40
2023-03-06T04:36:01.654Z,10.60
2023-03-06T04:36:39.337Z,8.77
2023-03-06T04:37:19.843Z,9.23
2023-03-06T04:37:53.008Z,12.02
2023-03-06T04:38:30.389Z,13.32
2023-03-06T04:39:03.595Z,11.00
2023-03-06T04:39:37.173Z,11.60
2023-03-06T04:40:16.770Z,10.85
2023-03-06T04:40:51.932Z,9.38
2023-03-06T04:41:24.763Z,10.23
2023-03-06T04:41:56.897Z,10.00
2023-03-06T04:42:29.128Z,8.30
2023-03-06T04:43:04.737Z,10.07
2023-03-06T04:43:39.678Z,8.15
2023-03-06T04:44:13.200Z,8.77
2023-03-06T04:44:48.484Z,9.18
2023-03-06T04:45:21.033Z,9.50
2023-03-06T04:45:53.303Z,8.82
2023-03-06T04:46:28.010Z,8.68
2023-03-06T04:47:00.217Z,9.82
2023-03-06T04:47:32.315Z,9.27
2023-03-06T04:48:07.510Z,8.75
2023-03-06T04:48:39.647Z,8.27
2023-03-06T04:49:11.894Z,8.32
2023-03-06T04:49:46.883Z,10.30
2023-03-06T04:50:19.979Z,8.70
2023-03-06T04:50:54.876Z,8.43
2023-03-06T04:51:27.168Z,8.32
2023-03-06T04:51:59.260Z,9.43
2023-03-06T04:52:34.069Z,7.57
2023-03-06T04:53:06.329Z,8.23
2023-03-06T04:53:38.688Z,7.82
2023-03-06T04:54:13.371Z,9.23
2023-03-06T04:54:46.209Z,8.80
2023-03-06T04:55:19.417Z,8.90
2023-03-06T04:55:54.097Z,7.90
2023-03-06T04:56:26.199Z,8.63
2023-03-06T04:56:58.305Z,7.78
2023-03-06T04:57:32.956Z,8.02
2023-03-06T04:58:05.122Z,8.63
2023-03-06T04:58:43.365Z,8.70
2023-03-06T04:59:15.624Z,7.65
2023-03-06T04:59:47.712Z,7.65
2023-03-06T05:00:24.777Z,9.95
2023-03-06T05:00:56.980Z,8.02
2023-03-06T05:01:29.194Z,8.35
2023-03-06T05:02:04.374Z,8.93
2023-03-06T05:02:36.839Z,7.90
2023-03-06T05:03:09.509Z,8.05
2023-03-06T05:03:44.354Z,9.02
2023-03-06T05:04:16.627Z,8.68
2023-03-06T05:04:48.822Z,9.90
2023-03-06T05:05:20.971Z,7.93
2023-03-06T05:05:55.828Z,7.97
2023-03-06T05:06:28.490Z,9.95
2023-03-06T05:07:00.714Z,9.80
2023-03-06T05:07:35.413Z,9.85
2023-03-06T05:08:08.065Z,7.68
2023-03-06T05:08:40.265Z,8.38
2023-03-06T05:09:15.297Z,9.13
2023-03-06T05:09:47.437Z,8.25
2023-03-06T05:10:20.519Z,8.88
2023-03-06T05:10:58.801Z,9.80
2023-03-06T05:11:31.461Z,9.55
2023-03-06T05:12:04.589Z,9.07
2023-03-06T05:12:37.387Z,10.63
2023-03-06T05:13:12.675Z,9.70
2023-03-06T05:13:47.622Z,11.30
2023-03-06T05:14:20.124Z,9.10
2023-03-06T05:14:55.605Z,10.30
2023-03-06T05:15:27.779Z,9.10
2023-03-06T05:16:02.868Z,12.60
2023-03-06T05:16:37.637Z,9.70
2023-03-06T05:17:09.904Z,8.93
2023-03-06T05:17:42.178Z,10.30
2023-03-06T05:18:16.973Z,9.32
2023-03-06T05:18:50.706Z,9.35
2023-03-06T05:19:23.276Z,7.90
2023-03-06T05:19:58.037Z,11.00
2023-03-06T05:20:30.456Z,10.35
2023-03-06T05:21:03.201Z,9.48
2023-03-06T05:21:37.948Z,10.27
2023-03-06T05:22:10.154Z,10.10
2023-03-06T05:22:42.616Z,11.57
2023-03-06T05:23:17.496Z,10.23
2023-03-06T05:23:49.689Z,8.98
2023-03-06T05:24:24.819Z,10.75
2023-03-06T05:24:57.093Z,8.70
2023-03-06T05:25:29.337Z,9.93
2023-03-06T05:26:04.286Z,9.10
2023-03-06T05:26:36.433Z,9.57
2023-03-06T05:27:08.716Z,10.23
2023-03-06T05:27:44.191Z,9.07
2023-03-06T05:28:16.436Z,8.05
2023-03-06T05:28:51.229Z,9.15
2023-03-06T05:29:25.993Z,8.98
2023-03-06T05:29:58.307Z,7.88
2023-03-06T05:30:30.569Z,9.52
2023-03-06T05:31:06.609Z,8.70
2023-03-06T05:31:39.184Z,9.70
2023-03-06T05:32:12.156Z,8.43
2023-03-06T05:32:47.718Z,8.02
2023-03-06T05:33:20.111Z,6.60
2023-03-06T05:33:52.255Z,8.35
2023-03-06T05:34:27.068Z,9.52
2023-03-06T05:34:59.236Z,8.45
2023-03-06T05:35:32.095Z,9.75
2023-03-06T05:36:07.951Z,10.07
2023-03-06T05:36:40.385Z,9.60
2023-03-06T05:37:12.930Z,10.55
2023-03-06T05:37:48.012Z,9.35
2023-03-06T05:38:20.567Z,10.77
2023-03-06T05:38:53.055Z,9.23
2023-03-06T05:39:27.954Z,10.25
2023-03-06T05:40:00.213Z,8.70
2023-03-06T05:40:32.881Z,10.15
2023-03-06T05:41:08.255Z,9.00
2023-03-06T05:41:41.486Z,12.48
2023-03-06T05:42:14.293Z,17.35
2023-03-06T05:42:49.086Z,8.15
2023-03-06T05:43:22.781Z,9.77
2023-03-06T05:43:57.675Z,9.48
2023-03-06T05:44:34.811Z,10.45
2023-03-06T05:45:08.250Z,9.27
2023-03-06T05:45:41.235Z,10.25
2023-03-06T05:46:16.011Z,10.35
2023-03-06T05:46:49.294Z,10.20
2023-03-06T05:47:21.413Z,8.80
2023-03-06T05:47:56.202Z,10.13
2023-03-06T05:48:28.422Z,11.90
2023-03-06T05:49:00.582Z,11.43
2023-03-06T05:49:36.732Z,11.82
2023-03-06T05:50:10.643Z,11.13
2023-03-06T05:50:42.759Z,10.77
2023-03-06T05:51:17.742Z,9.30
2023-03-06T05:51:49.879Z,10.00
2023-03-06T05:52:22.007Z,9.77
2023-03-06T05:52:56.691Z,12.45
2023-03-06T05:53:29.495Z,11.50
2023-03-06T05:54:01.699Z,9.40
2023-03-06T05:54:37.692Z,12.98
2023-03-06T05:55:12.454Z,10.93
2023-03-06T05:55:44.669Z,11.25
2023-03-06T05:56:21.839Z,10.25
2023-03-06T05:56:54.146Z,9.60
2023-03-06T05:57:26.292Z,9.57
2023-03-06T05:58:01.110Z,9.85
2023-03-06T05:58:33.996Z,10.55
2023-03-06T05:59:08.731Z,9.23
2023-03-06T05:59:43.549Z,9.40
2023-03-06T06:00:16.726Z,10.75
2023-03-06T06:00:50.150Z,9.10
2023-03-06T06:01:25.456Z,8.80
2023-03-06T06:01:58.072Z,9.20
2023-03-06T06:02:30.335Z,10.88
2023-03-06T06:03:05.320Z,7.78
2023-03-06T06:03:37.637Z,9.05
2023-03-06T06:04:11.710Z,11.02
2023-03-06T06:04:46.555Z,9.52
2023-03-06T06:05:18.763Z,11.63
2023-03-06T06:05:51.905Z,10.38
2023-03-06T06:06:26.582Z,8.23
2023-03-06T06:07:01.020Z,9.98
2023-03-06T06:07:33.342Z,8.18
2023-03-06T06:08:09.851Z,9.10
2023-03-06T06:08:42.397Z,8.88
2023-03-06T06:09:14.870Z,9.70
2023-03-06T06:09:47.124Z,10.00
2023-03-06T06:10:21.886Z,12.20
2023-03-06T06:10:54.289Z,10.60
2023-03-06T06:11:26.391Z,10.18
2023-03-06T06:12:01.602Z,10.38
2023-03-06T06:12:36.952Z,9.48
2023-03-06T06:13:12.135Z,8.52
2023-03-06T06:13:44.796Z,8.80
2023-03-06T06:14:22.522Z,8.25
2023-03-06T06:14:55.048Z,8.70
2023-03-06T06:15:29.036Z,10.10
2023-03-06T06:16:08.965Z,10.85
2023-03-06T06:17:13.590Z,9.00
2023-03-06T06:17:48.823Z,12.45
2023-03-06T06:18:21.527Z,10.32
2023-03-06T06:18:53.965Z,9.77
2023-03-06T06:19:31.678Z,9.20
2023-03-06T06:20:05.159Z,11.20
2023-03-06T06:20:40.202Z,11.63
2023-03-06T06:21:14.504Z,10.65
2023-03-06T06:21:47.986Z,9.20
2023-03-06T06:22:22.964Z,10.30
2023-03-06T06:22:55.189Z,12.02
2023-03-06T06:23:27.304Z,12.30
2023-03-06T06:24:02.128Z,9.90
2023-03-06T06:24:34.514Z,10.10
2023-03-06T06:25:10.759Z,10.27
2023-03-06T06:25:43.408Z,10.43
2023-03-06T06:26:19.729Z,13.20
2023-03-06T06:26:53.893Z,10.90
2023-03-06T06:27:28.653Z,10.88
2023-03-06T06:28:00.986Z,10.80
2023-03-06T06:28:36.240Z,10.20
2023-03-06T06:29:09.107Z,8.23
2023-03-06T06:29:46.393Z,9.63
2023-03-06T06:30:19.089Z,13.82
2023-03-06T06:30:52.506Z,12.27
2023-03-06T06:31:27.357Z,11.00
2023-03-06T06:32:00.203Z,9.70
2023-03-06T06:32:35.068Z,10.80
2023-03-06T06:33:07.402Z,11.52
2023-03-06T06:33:40.445Z,11.45
2023-03-06T06:34:15.777Z,10.70
2023-03-06T06:34:48.142Z,12.52
2023-03-06T06:35:23.347Z,9.68
2023-03-06T06:35:55.680Z,9.68
2023-03-06T06:36:27.996Z,13.65
2023-03-06T06:37:02.899Z,9.30
2023-03-06T06:37:35.720Z,8.43
2023-03-06T06:38:07.983Z,11.68
2023-03-06T06:38:42.826Z,8.02
2023-03-06T06:39:17.462Z,8.25
2023-03-06T06:39:49.691Z,7.63
2023-03-06T06:40:24.675Z,9.18
2023-03-06T06:41:30.628Z,7.45
2023-03-06T06:42:09.601Z,8.95
2023-03-06T06:42:47.294Z,8.75
2023-03-06T06:43:22.031Z,7.50
2023-03-06T06:43:54.204Z,8.60
2023-03-06T06:44:29.013Z,8.07
2023-03-06T06:45:03.995Z,10.02
2023-03-06T06:45:36.523Z,10.88
2023-03-06T06:46:47.158Z,9.60
2023-03-06T06:47:59.204Z,8.20
2023-03-06T06:48:31.343Z,8.57
2023-03-06T06:49:04.452Z,9.00
2023-03-06T06:49:39.692Z,7.75
2023-03-06T06:50:13.573Z,9.82
2023-03-06T06:50:45.796Z,10.38
2023-03-06T06:51:20.540Z,8.25
2023-03-06T06:51:52.815Z,8.30
2023-03-06T06:52:27.192Z,10.10
2023-03-06T06:53:01.918Z,8.10
2023-03-06T06:53:34.161Z,8.93
2023-03-06T06:54:06.518Z,8.90
2023-03-06T06:54:41.307Z,9.90
2023-03-06T06:55:14.941Z,9.25
2023-03-06T06:55:47.049Z,8.70
2023-03-06T06:56:21.885Z,8.05
2023-03-06T06:56:54.097Z,8.10
2023-03-06T06:57:26.320Z,7.38
2023-03-06T06:58:01.027Z,8.10
2023-03-06T06:58:33.159Z,7.70
2023-03-06T06:59:16.193Z,6.40
2023-03-06T06:59:53.787Z,7.68
2023-03-06T07:00:29.315Z,8.57
2023-03-06T07:01:08.261Z,8.68
2023-03-06T07:01:40.539Z,13.98
2023-03-06T07:02:13.752Z,8.63
2023-03-06T07:02:51.258Z,8.77
2023-03-06T07:03:23.829Z,9.52
2023-03-06T07:03:56.705Z,6.10
2023-03-06T07:04:31.665Z,7.88
2023-03-06T07:05:05.496Z,7.70
2023-03-06T07:05:41.080Z,8.82
2023-03-06T07:06:13.252Z,7.95
2023-03-06T07:06:46.355Z,8.57
2023-03-06T07:07:21.016Z,7.03
2023-03-06T07:07:53.189Z,8.30
2023-03-06T07:08:25.438Z,6.05
2023-03-06T07:09:00.201Z,8.43
2023-03-06T07:09:32.461Z,6.70
2023-03-06T07:10:08.288Z,9.40
2023-03-06T07:10:40.472Z,8.30
2023-03-06T07:11:17.780Z,7.75
2023-03-06T07:11:50.389Z,7.35
2023-03-06T07:12:25.192Z,9.23
2023-03-06T07:12:57.407Z,7.03
2023-03-06T07:13:29.782Z,8.82
2023-03-06T07:14:04.888Z,7.43
2023-03-06T07:14:37.432Z,9.23
2023-03-06T07:15:16.065Z,7.55
2023-03-06T07:15:51.127Z,7.43
2023-03-06T07:16:25.972Z,7.57
2023-03-06T07:16:58.520Z,7.60
2023-03-06T07:17:30.707Z,7.95
2023-03-06T07:18:05.406Z,6.97
2023-03-06T07:18:37.482Z,7.13
2023-03-06T07:19:12.180Z,8.85
2023-03-06T07:19:44.392Z,7.85
2023-03-06T07:20:19.758Z,9.50
2023-03-06T07:20:53.500Z,9.32
2023-03-06T07:21:25.776Z,8.25
2023-03-06T07:22:00.534Z,6.07
2023-03-06T07:22:41.565Z,7.78
2023-03-06T07:23:23.597Z,7.85
2023-03-06T07:23:57.569Z,6.60
2023-03-06T07:24:32.469Z,7.82
2023-03-06T07:25:06.042Z,8.27
2023-03-06T07:25:41.019Z,8.68
2023-03-06T07:26:13.285Z,9.25
2023-03-06T07:26:46.968Z,7.03
2023-03-06T07:27:23.905Z,8.05
2023-03-06T07:27:56.346Z,6.63
2023-03-06T07:28:28.508Z,8.88
2023-03-06T07:29:03.740Z,6.93
2023-03-06T07:29:36.110Z,7.93
2023-03-06T07:30:14.917Z,8.27
2023-03-06T07:30:47.146Z,6.53
2023-03-06T07:31:23.910Z,8.07
2023-03-06T07:31:58.684Z,8.80
2023-03-06T07:32:30.957Z,7.95
2023-03-06T07:33:03.300Z,9.88
2023-03-06T07:33:38.198Z,9.68
2023-03-06T07:34:12.766Z,9.98
2023-03-06T07:34:45.394Z,7.55
2023-03-06T07:35:21.088Z,8.15
2023-03-06T07:35:53.231Z,7.45
2023-03-06T07:36:27.922Z,10.43
2023-03-06T07:37:00.114Z,7.90
2023-03-06T07:37:32.236Z,8.45